createdAt,value
2023-09-24T00:00:42.728Z,56.89
2023-09-24T00:02:45.754Z,56.80
2023-09-24T00:04:48.908Z,56.92
2023-09-24T00:06:51.570Z,56.97
2023-09-24T00:08:54.495Z,57.20
2023-09-24T00:10:57.419Z,57.69
2023-09-24T00:13:00.401Z,57.40
2023-09-24T00:15:04.086Z,57.64
2023-09-24T00:17:09.888Z,57.84
2023-09-24T00:19:12.569Z,57.90
2023-09-24T00:21:15.846Z,58.02
2023-09-24T00:23:18.729Z,57.92
2023-09-24T00:25:22.720Z,57.96
2023-09-24T00:27:25.460Z,58.15
2023-09-24T00:29:28.197Z,58.36
2023-09-24T00:31:32.220Z,58.22
2023-09-24T00:33:35.167Z,58.12
2023-09-24T00:35:37.874Z,58.17
2023-09-24T00:37:40.644Z,58.25
2023-09-24T00:39:43.262Z,58.41
2023-09-24T00:41:47.312Z,58.31
2023-09-24T00:43:50.126Z,58.30
2023-09-24T00:45:53.318Z,58.65
2023-09-24T00:47:57.917Z,58.42
2023-09-24T00:50:00.987Z,58.63
2023-09-24T00:52:04.047Z,58.65
2023-09-24T00:54:08.209Z,58.77
2023-09-24T00:56:12.318Z,58.65
2023-09-24T00:58:15.359Z,58.87
2023-09-24T01:00:19.514Z,59.11
2023-09-24T01:02:22.488Z,59.15
2023-09-24T01:04:25.341Z,59.21
2023-09-24T01:06:28.281Z,59.05
2023-09-24T01:08:32.839Z,59.24
2023-09-24T01:10:35.582Z,59.37
2023-09-24T01:12:40.793Z,59.34
2023-09-24T01:14:43.513Z,59.21
2023-09-24T01:16:46.410Z,59.18
2023-09-24T01:18:49.122Z,59.22
2023-09-24T01:20:52.300Z,59.23
2023-09-24T01:22:54.994Z,59.20
2023-09-24T01:24:58.192Z,59.22
2023-09-24T01:27:00.997Z,59.39
2023-09-24T01:29:04.142Z,59.39
2023-09-24T01:31:08.005Z,59.48
2023-09-24T01:33:10.785Z,59.46
2023-09-24T01:35:14.029Z,59.41
2023-09-24T01:37:17.219Z,59.55
2023-09-24T01:39:20.604Z,59.51
2023-09-24T01:41:23.960Z,59.54
2023-09-24T01:43:27.123Z,59.67
2023-09-24T01:45:30.165Z,59.70
2023-09-24T01:47:33.780Z,59.87
2023-09-24T01:49:36.474Z,59.66
2023-09-24T01:51:39.519Z,59.83
2023-09-24T01:53:43.703Z,60.01
2023-09-24T01:55:46.499Z,59.87
2023-09-24T01:57:49.401Z,59.91
2023-09-24T01:59:52.080Z,60.16
2023-09-24T02:01:54.906Z,60.11
2023-09-24T02:04:00.906Z,60.24
2023-09-24T02:06:07.067Z,60.22
2023-09-24T02:08:13.589Z,60.18
2023-09-24T02:10:19.705Z,60.15
2023-09-24T02:12:23.370Z,60.42
2023-09-24T02:14:26.170Z,60.07
2023-09-24T02:16:29.207Z,60.06
2023-09-24T02:18:34.247Z,60.02
2023-09-24T02:20:37.772Z,59.92
2023-09-24T02:22:40.851Z,59.66
2023-09-24T02:24:43.690Z,59.33
2023-09-24T02:26:46.607Z,59.09
2023-09-24T02:28:49.374Z,58.80
2023-09-24T02:30:54.864Z,58.41
2023-09-24T02:32:59.384Z,57.88
2023-09-24T02:35:02.596Z,57.57
2023-09-24T02:37:07.805Z,56.96
2023-09-24T02:39:11.140Z,56.60
2023-09-24T02:41:13.701Z,56.11
2023-09-24T02:43:16.754Z,55.81
2023-09-24T02:45:20.183Z,55.22
2023-09-24T02:47:22.999Z,55.29
2023-09-24T02:49:26.197Z,54.67
2023-09-24T02:51:29.792Z,54.58
2023-09-24T02:53:33.030Z,54.19
2023-09-24T02:55:37.555Z,54.25
2023-09-24T02:57:42.424Z,54.11
2023-09-24T02:59:45.149Z,53.91
2023-09-24T03:01:53.528Z,53.72
2023-09-24T03:03:56.501Z,53.44
2023-09-24T03:05:59.265Z,53.11
2023-09-24T03:08:02.458Z,52.72
2023-09-24T03:10:08.881Z,52.63
2023-09-24T03:12:13.155Z,52.30
2023-09-24T03:14:15.846Z,52.21
2023-09-24T03:16:18.544Z,51.84
2023-09-24T03:18:21.338Z,51.80
2023-09-24T03:20:25.222Z,51.76
2023-09-24T03:22:28.470Z,51.64
2023-09-24T03:24:31.113Z,52.07
2023-09-24T03:26:33.808Z,52.25
2023-09-24T03:28:37.197Z,52.69
2023-09-24T03:30:39.915Z,52.96
2023-09-24T03:32:43.221Z,53.06
2023-09-24T03:34:46.016Z,53.22
2023-09-24T03:36:48.657Z,52.50
2023-09-24T03:38:51.471Z,52.05
2023-09-24T03:40:54.329Z,51.28
2023-09-24T03:42:57.412Z,50.97
2023-09-24T03:45:01.656Z,51.20
2023-09-24T03:47:06.971Z,51.18
2023-09-24T03:49:09.651Z,51.12
2023-09-24T03:51:12.443Z,51.35
2023-09-24T03:53:16.952Z,51.84
2023-09-24T03:55:22.614Z,51.28
2023-09-24T03:57:28.775Z,50.84
2023-09-24T03:59:31.458Z,50.80
2023-09-24T04:01:34.480Z,50.51
2023-09-24T04:03:38.717Z,50.39
2023-09-24T04:05:41.535Z,50.31
2023-09-24T04:07:44.639Z,50.33
2023-09-24T04:09:49.109Z,50.01
2023-09-24T04:11:51.830Z,49.90
2023-09-24T04:13:54.518Z,49.37
2023-09-24T04:15:57.288Z,48.99
2023-09-24T04:18:02.057Z,48.36
2023-09-24T04:20:08.532Z,47.88
2023-09-24T04:22:11.193Z,47.97
2023-09-24T04:24:15.197Z,47.89
2023-09-24T04:26:24.599Z,47.93
2023-09-24T04:28:27.840Z,47.88
2023-09-24T04:30:30.895Z,48.02
2023-09-24T04:32:33.691Z,47.93
2023-09-24T04:34:36.680Z,48.13
2023-09-24T04:36:43.020Z,47.95
2023-09-24T04:38:46.116Z,48.04
2023-09-24T04:40:48.828Z,47.86
2023-09-24T04:42:52.609Z,47.89
2023-09-24T04:44:55.802Z,47.49
2023-09-24T04:46:58.563Z,47.02
2023-09-24T04:49:06.044Z,46.68
2023-09-24T04:51:09.034Z,46.59
2023-09-24T04:53:11.676Z,46.59
2023-09-24T04:55:15.600Z,47.02
2023-09-24T04:57:18.546Z,46.69
2023-09-24T04:59:21.264Z,46.64
2023-09-24T05:01:24.130Z,46.72
2023-09-24T05:03:26.931Z,46.63
2023-09-24T05:05:29.855Z,46.30
2023-09-24T05:07:32.620Z,45.76
2023-09-24T05:09:35.231Z,45.42
2023-09-24T05:11:38.069Z,44.94
2023-09-24T05:13:41.688Z,44.83
2023-09-24T05:15:55.633Z,44.29
2023-09-24T05:17:58.462Z,43.81
2023-09-24T05:20:01.246Z,43.78
2023-09-24T05:22:03.964Z,43.67
2023-09-24T05:24:06.880Z,43.16
2023-09-24T05:26:14.603Z,42.63
2023-09-24T05:28:17.422Z,42.37
2023-09-24T05:30:20.244Z,42.26
2023-09-24T05:32:23.088Z,41.81
2023-09-24T05:34:25.886Z,42.00
2023-09-24T05:36:29.486Z,41.72
2023-09-24T05:38:32.252Z,41.73
2023-09-24T05:40:39.755Z,40.99
2023-09-24T05:42:45.772Z,40.37
2023-09-24T05:44:48.492Z,40.54
2023-09-24T05:46:51.188Z,40.42
2023-09-24T05:48:56.653Z,39.59
2023-09-24T05:51:03.993Z,39.90
2023-09-24T05:53:08.213Z,39.71
2023-09-24T05:55:10.828Z,39.11
2023-09-24T05:57:13.905Z,39.35
2023-09-24T05:59:16.753Z,39.78
2023-09-24T06:01:19.878Z,39.43
2023-09-24T06:03:22.766Z,39.68
2023-09-24T06:05:25.724Z,39.92
2023-09-24T06:07:29.688Z,39.22
2023-09-24T06:09:34.195Z,38.83
2023-09-24T06:11:39.795Z,39.06
2023-09-24T06:13:42.988Z,38.73
2023-09-24T06:15:45.968Z,38.61
2023-09-24T06:17:51.066Z,38.49
2023-09-24T06:19:57.015Z,38.74
2023-09-24T06:21:59.851Z,37.90
2023-09-24T06:24:02.661Z,37.65
2023-09-24T06:26:05.761Z,37.19
2023-09-24T06:28:10.840Z,36.63
2023-09-24T06:30:14.214Z,37.44
2023-09-24T06:32:17.139Z,37.67
2023-09-24T06:34:21.411Z,37.09
2023-09-24T06:36:24.181Z,37.20
2023-09-24T06:38:26.923Z,37.08
2023-09-24T06:40:30.428Z,37.24
2023-09-24T06:42:33.278Z,36.97
2023-09-24T06:44:36.010Z,36.92
2023-09-24T06:46:38.869Z,36.60
2023-09-24T06:48:41.730Z,36.82
2023-09-24T06:50:44.625Z,36.03
2023-09-24T06:52:49.542Z,35.88
2023-09-24T06:54:52.442Z,35.37
2023-09-24T06:56:56.898Z,35.08
2023-09-24T06:59:16.192Z,34.30
2023-09-24T07:01:24.492Z,33.55
2023-09-24T07:03:27.637Z,34.41
2023-09-24T07:05:31.312Z,34.55
2023-09-24T07:07:34.030Z,33.10
2023-09-24T07:09:37.018Z,32.92
2023-09-24T07:11:40.008Z,33.49
2023-09-24T07:13:42.943Z,33.67
2023-09-24T07:15:45.610Z,33.30
2023-09-24T07:17:48.407Z,33.64
2023-09-24T07:19:51.886Z,33.80
2023-09-24T07:21:54.641Z,34.35
2023-09-24T07:23:59.780Z,34.12
2023-09-24T07:26:02.703Z,33.94
2023-09-24T07:28:05.616Z,33.84
2023-09-24T07:30:10.815Z,34.15
2023-09-24T07:32:15.740Z,34.74
2023-09-24T07:34:18.635Z,35.03
2023-09-24T07:36:32.441Z,34.26
2023-09-24T07:38:40.760Z,33.96
2023-09-24T07:40:44.589Z,33.33
2023-09-24T07:42:50.769Z,33.00
2023-09-24T07:44:55.005Z,31.68
2023-09-24T07:46:58.032Z,31.31
2023-09-24T07:49:04.877Z,31.68
2023-09-24T07:51:07.787Z,32.01
2023-09-24T07:53:11.359Z,31.53
2023-09-24T07:55:14.336Z,30.82
2023-09-24T07:57:17.422Z,29.94
2023-09-24T07:59:20.762Z,30.33
2023-09-24T08:01:24.498Z,30.16
2023-09-24T08:03:27.876Z,29.72
2023-09-24T08:05:31.527Z,29.59
2023-09-24T08:07:37.536Z,29.08
2023-09-24T08:09:41.872Z,29.14
2023-09-24T08:11:45.013Z,29.36
2023-09-24T08:13:50.226Z,29.70
2023-09-24T08:15:57.958Z,29.95
2023-09-24T08:18:00.964Z,30.39
2023-09-24T08:20:03.900Z,30.49
2023-09-24T08:22:08.456Z,30.20
2023-09-24T08:24:11.810Z,30.03
2023-09-24T08:26:14.966Z,30.53
2023-09-24T08:28:18.435Z,30.26
2023-09-24T08:30:21.715Z,30.29
2023-09-24T08:32:25.368Z,29.68
2023-09-24T08:34:28.614Z,30.07
2023-09-24T08:36:32.218Z,30.48
2023-09-24T08:38:35.177Z,29.80
2023-09-24T08:40:41.307Z,29.87
2023-09-24T08:42:51.820Z,29.62
2023-09-24T08:45:16.397Z,29.21
2023-09-24T08:47:20.759Z,29.50
2023-09-24T08:49:24.305Z,29.26
2023-09-24T08:51:33.626Z,28.83
2023-09-24T08:53:37.742Z,28.82
2023-09-24T08:55:47.857Z,29.16
2023-09-24T08:57:51.856Z,29.81
2023-09-24T08:59:54.631Z,30.06
2023-09-24T09:01:57.439Z,29.71
2023-09-24T09:04:00.652Z,29.31
2023-09-24T09:06:05.442Z,29.15
2023-09-24T09:08:09.950Z,29.88
2023-09-24T09:10:13.068Z,29.95
2023-09-24T09:12:20.117Z,29.77
2023-09-24T09:14:38.852Z,29.98
2023-09-24T09:17:00.105Z,29.85
2023-09-24T09:19:04.061Z,30.09
2023-09-24T09:21:06.873Z,30.47
2023-09-24T09:23:14.809Z,30.52
2023-09-24T09:25:18.346Z,30.27
2023-09-24T09:27:21.882Z,30.31
2023-09-24T09:29:26.643Z,30.18
2023-09-24T09:31:30.221Z,30.13
2023-09-24T09:33:35.688Z,30.35
2023-09-24T09:35:38.635Z,29.81
2023-09-24T09:37:43.614Z,29.07
2023-09-24T09:39:47.336Z,29.19
2023-09-24T09:41:52.579Z,29.24
2023-09-24T09:43:55.758Z,28.90
2023-09-24T09:45:59.277Z,29.44
2023-09-24T09:48:05.939Z,28.89
2023-09-24T09:50:12.092Z,28.74
2023-09-24T09:52:21.381Z,30.47
2023-09-24T09:54:25.671Z,30.29
2023-09-24T09:56:28.718Z,28.93
2023-09-24T09:58:35.155Z,28.52
2023-09-24T10:00:40.367Z,29.05
2023-09-24T10:02:49.087Z,28.97
2023-09-24T10:04:53.160Z,28.85
2023-09-24T10:06:56.407Z,29.16
2023-09-24T10:08:59.166Z,28.87
2023-09-24T10:11:02.511Z,29.30
2023-09-24T10:13:06.089Z,28.89
2023-09-24T10:15:28.389Z,28.94
2023-09-24T10:17:31.613Z,29.00
2023-09-24T10:20:00.373Z,29.38
2023-09-24T10:22:29.566Z,28.75
2023-09-24T10:24:38.585Z,28.74
2023-09-24T10:27:06.335Z,28.63
2023-09-24T10:29:09.529Z,28.91
2023-09-24T10:31:13.777Z,29.09
2023-09-24T10:33:16.722Z,29.21
2023-09-24T10:35:20.775Z,28.80
2023-09-24T10:37:39.049Z,28.92
2023-09-24T10:40:06.381Z,28.36
2023-09-24T10:42:10.925Z,28.31
2023-09-24T10:44:28.902Z,26.94
2023-09-24T10:46:32.392Z,27.11
2023-09-24T10:48:51.913Z,26.49
2023-09-24T10:50:56.276Z,27.07
2023-09-24T10:53:01.233Z,26.66
2023-09-24T10:55:04.203Z,26.12
2023-09-24T10:57:07.525Z,25.77
2023-09-24T10:59:10.356Z,25.87
2023-09-24T11:01:13.381Z,25.87
2023-09-24T11:03:17.573Z,26.28
2023-09-24T11:05:20.760Z,26.56
2023-09-24T11:07:27.550Z,26.27
2023-09-24T11:09:30.589Z,26.82
2023-09-24T11:11:34.433Z,26.47
2023-09-24T11:13:37.771Z,25.98
2023-09-24T11:15:41.563Z,26.04
2023-09-24T11:17:49.394Z,26.17
2023-09-24T11:19:52.561Z,25.93
2023-09-24T11:21:55.770Z,25.99
2023-09-24T11:23:58.912Z,26.29
2023-09-24T11:26:01.708Z,25.84
2023-09-24T11:28:06.317Z,25.99
2023-09-24T11:30:10.130Z,25.88
2023-09-24T11:32:26.341Z,26.09
2023-09-24T11:34:30.632Z,25.85
2023-09-24T11:36:33.434Z,25.63
2023-09-24T11:38:42.025Z,25.79
2023-09-24T11:40:45.099Z,25.57
2023-09-24T11:43:05.483Z,25.90
2023-09-24T11:45:08.653Z,25.41
2023-09-24T11:47:11.607Z,25.23
2023-09-24T11:49:14.677Z,25.35
2023-09-24T11:51:17.678Z,25.21
2023-09-24T11:53:25.705Z,24.86
2023-09-24T11:55:29.534Z,24.77
2023-09-24T11:57:32.347Z,23.53
2023-09-24T11:59:35.150Z,23.23
2023-09-24T12:01:38.575Z,22.50
2023-09-24T12:03:44.200Z,22.46
2023-09-24T12:05:48.241Z,23.03
2023-09-24T12:07:52.030Z,22.79
2023-09-24T12:09:54.954Z,22.29
2023-09-24T12:11:59.981Z,22.22
2023-09-24T12:14:03.663Z,21.86
2023-09-24T12:16:06.582Z,22.09
2023-09-24T12:18:10.369Z,21.95
2023-09-24T12:20:15.545Z,22.60
2023-09-24T12:22:18.641Z,22.56
2023-09-24T12:24:21.537Z,22.30
2023-09-24T12:26:24.383Z,22.24
2023-09-24T12:28:29.653Z,22.13
2023-09-24T12:30:33.313Z,22.46
2023-09-24T12:32:36.542Z,22.16
2023-09-24T12:34:39.393Z,22.16
2023-09-24T12:36:42.392Z,21.98
2023-09-24T12:38:45.225Z,21.41
2023-09-24T12:40:48.765Z,21.48
2023-09-24T12:42:52.205Z,21.38
2023-09-24T12:44:55.663Z,21.39
2023-09-24T12:46:58.564Z,21.85
2023-09-24T12:49:03.857Z,21.58
2023-09-24T12:51:07.036Z,21.46
2023-09-24T12:53:09.935Z,20.99
2023-09-24T12:55:17.201Z,20.64
2023-09-24T12:57:20.318Z,20.78
2023-09-24T12:59:23.265Z,20.53
2023-09-24T13:01:26.116Z,20.81
2023-09-24T13:03:30.224Z,20.79
2023-09-24T13:05:34.981Z,20.35
2023-09-24T13:07:38.010Z,20.42
2023-09-24T13:09:41.824Z,20.46
2023-09-24T13:11:47.580Z,20.53
2023-09-24T13:13:51.563Z,20.67
2023-09-24T13:15:54.377Z,20.29
2023-09-24T13:17:57.349Z,20.24
2023-09-24T13:20:00.432Z,20.50
2023-09-24T13:22:03.335Z,20.06
2023-09-24T13:24:06.913Z,19.92
2023-09-24T13:26:09.685Z,20.08
2023-09-24T13:28:12.636Z,20.43
2023-09-24T13:30:15.432Z,20.14
2023-09-24T13:32:20.921Z,20.34
2023-09-24T13:34:24.372Z,20.18
2023-09-24T13:36:27.691Z,19.96
2023-09-24T13:38:31.307Z,20.38
2023-09-24T13:40:39.083Z,20.27
2023-09-24T13:42:42.492Z,20.31
2023-09-24T13:44:45.248Z,20.46
2023-09-24T13:46:48.176Z,20.73
2023-09-24T13:48:51.124Z,20.67
2023-09-24T13:50:54.215Z,20.73
2023-09-24T13:52:57.718Z,20.65
2023-09-24T13:55:00.490Z,20.87
2023-09-24T13:57:04.628Z,20.48
2023-09-24T13:59:08.932Z,20.80
2023-09-24T14:01:12.777Z,20.89
2023-09-24T14:03:16.028Z,20.75
2023-09-24T14:05:19.262Z,20.75
2023-09-24T14:07:22.013Z,21.04
2023-09-24T14:09:43.252Z,21.62
2023-09-24T14:12:05.153Z,21.20
2023-09-24T14:14:08.444Z,21.73
2023-09-24T14:16:16.804Z,22.02
2023-09-24T14:18:20.372Z,22.79
2023-09-24T14:20:23.729Z,23.21
2023-09-24T14:22:26.485Z,23.18
2023-09-24T14:24:30.039Z,23.45
2023-09-24T14:26:33.333Z,24.26
2023-09-24T14:28:36.315Z,24.59
2023-09-24T14:30:40.008Z,24.39
2023-09-24T14:32:42.952Z,25.07
2023-09-24T14:34:47.077Z,25.10
2023-09-24T14:36:51.376Z,25.54
2023-09-24T14:38:54.277Z,25.95
2023-09-24T14:40:57.631Z,26.28
2023-09-24T14:43:00.638Z,26.74
2023-09-24T14:45:05.562Z,26.84
2023-09-24T14:47:08.744Z,27.93
2023-09-24T14:49:13.434Z,28.92
2023-09-24T14:51:19.906Z,28.52
2023-09-24T14:53:26.600Z,29.09
2023-09-24T14:55:29.335Z,29.36
2023-09-24T14:57:31.973Z,29.08
2023-09-24T14:59:34.876Z,29.38
2023-09-24T15:01:40.809Z,29.32
2023-09-24T15:03:44.222Z,29.64
2023-09-24T15:05:47.487Z,30.85
2023-09-24T15:07:50.551Z,29.84
2023-09-24T15:09:53.332Z,30.07
2023-09-24T15:11:59.764Z,30.94
2023-09-24T15:14:02.581Z,30.78
2023-09-24T15:16:06.383Z,30.63
2023-09-24T15:18:10.437Z,30.64
2023-09-24T15:20:13.520Z,30.86
2023-09-24T15:22:16.533Z,30.86
2023-09-24T15:24:19.654Z,30.90
2023-09-24T15:26:22.820Z,31.29
2023-09-24T15:28:25.735Z,30.74
2023-09-24T15:30:28.573Z,30.75
2023-09-24T15:32:31.407Z,30.74
2023-09-24T15:34:34.266Z,30.75
2023-09-24T15:36:37.286Z,30.72
2023-09-24T15:38:40.690Z,31.03
2023-09-24T15:40:43.570Z,31.29
2023-09-24T15:42:46.421Z,30.99
2023-09-24T15:44:51.612Z,30.77
2023-09-24T15:46:54.417Z,31.16
2023-09-24T15:48:57.184Z,31.10
2023-09-24T15:51:00.225Z,31.11
2023-09-24T15:53:05.332Z,31.14
2023-09-24T15:55:09.633Z,31.17
2023-09-24T15:57:12.727Z,31.48
2023-09-24T15:59:16.203Z,31.61
2023-09-24T16:01:19.144Z,31.47
2023-09-24T16:03:22.240Z,32.40
2023-09-24T16:05:26.498Z,32.11
2023-09-24T16:07:29.772Z,32.10
2023-09-24T16:09:32.675Z,32.12
2023-09-24T16:11:36.070Z,33.00
2023-09-24T16:13:41.662Z,32.82
2023-09-24T16:15:44.488Z,32.53
2023-09-24T16:17:47.460Z,32.76
2023-09-24T16:19:50.809Z,33.14
2023-09-24T16:21:54.330Z,33.72
2023-09-24T16:23:58.681Z,33.65
2023-09-24T16:26:11.135Z,32.95
2023-09-24T16:28:14.269Z,33.80
2023-09-24T16:30:18.866Z,33.31
2023-09-24T16:32:22.099Z,34.08
2023-09-24T16:34:27.059Z,33.81
2023-09-24T16:36:35.040Z,34.29
2023-09-24T16:38:37.868Z,33.80
2023-09-24T16:40:40.640Z,34.04
2023-09-24T16:42:47.447Z,34.12
2023-09-24T16:44:50.369Z,33.79
2023-09-24T16:46:53.486Z,34.04
2023-09-24T16:48:56.460Z,34.51
2023-09-24T16:51:04.526Z,34.50
2023-09-24T16:53:07.870Z,35.17
2023-09-24T16:55:10.709Z,34.52
2023-09-24T16:57:15.114Z,34.96
2023-09-24T16:59:18.403Z,34.75
2023-09-24T17:01:22.954Z,34.97
2023-09-24T17:03:26.269Z,34.89
2023-09-24T17:05:30.518Z,35.46
2023-09-24T17:07:33.598Z,35.15
2023-09-24T17:09:36.465Z,35.73
2023-09-24T17:11:39.865Z,35.99
2023-09-24T17:13:44.893Z,36.07
2023-09-24T17:15:48.603Z,36.10
2023-09-24T17:17:52.330Z,36.24
2023-09-24T17:19:56.074Z,36.16
2023-09-24T17:21:59.570Z,36.43
2023-09-24T17:24:02.659Z,36.34
2023-09-24T17:26:19.237Z,36.62
2023-09-24T17:28:23.075Z,36.60
2023-09-24T17:30:26.152Z,37.02
2023-09-24T17:32:29.030Z,37.23
2023-09-24T17:34:33.580Z,37.37
2023-09-24T17:36:36.859Z,37.25
2023-09-24T17:38:41.294Z,37.54
2023-09-24T17:40:46.291Z,37.84
2023-09-24T17:42:49.008Z,37.80
2023-09-24T17:44:52.598Z,38.06
2023-09-24T17:46:55.647Z,38.21
2023-09-24T17:48:58.527Z,38.05
2023-09-24T17:51:09.600Z,38.27
2023-09-24T17:53:12.548Z,38.32
2023-09-24T17:55:15.314Z,38.42
2023-09-24T17:57:19.498Z,38.36
2023-09-24T17:59:23.726Z,38.54
2023-09-24T18:01:27.834Z,38.68
2023-09-24T18:03:31.014Z,38.80
2023-09-24T18:05:33.904Z,38.84
2023-09-24T18:07:36.803Z,38.57
2023-09-24T18:09:39.619Z,39.02
2023-09-24T18:11:42.457Z,39.06
2023-09-24T18:13:46.513Z,39.27
2023-09-24T18:15:56.750Z,39.11
2023-09-24T18:17:59.619Z,39.39
2023-09-24T18:20:02.529Z,39.37
2023-09-24T18:22:07.380Z,39.28
2023-09-24T18:24:10.188Z,39.45
2023-09-24T18:26:13.229Z,39.56
2023-09-24T18:28:17.115Z,39.63
2023-09-24T18:30:19.910Z,39.73
2023-09-24T18:32:22.949Z,39.82
2023-09-24T18:34:25.669Z,39.98
2023-09-24T18:36:28.393Z,40.02
2023-09-24T18:38:31.418Z,39.95
2023-09-24T18:40:41.507Z,40.02
2023-09-24T18:42:45.535Z,40.16
2023-09-24T18:44:51.439Z,40.30
2023-09-24T18:46:54.926Z,40.51
2023-09-24T18:48:57.697Z,40.42
2023-09-24T18:51:01.602Z,40.37
2023-09-24T18:53:05.028Z,40.40
2023-09-24T18:55:07.965Z,40.45
2023-09-24T18:57:10.641Z,40.71
2023-09-24T18:59:13.326Z,40.60
2023-09-24T19:01:16.092Z,40.63
2023-09-24T19:03:18.872Z,40.67
2023-09-24T19:05:24.341Z,40.55
2023-09-24T19:07:27.080Z,40.82
2023-09-24T19:09:29.797Z,40.84
2023-09-24T19:11:33.116Z,40.69
2023-09-24T19:13:35.876Z,40.81
2023-09-24T19:15:38.643Z,40.77
2023-09-24T19:17:41.853Z,40.77
2023-09-24T19:19:44.593Z,40.91
2023-09-24T19:21:47.263Z,40.89
2023-09-24T19:23:54.239Z,41.01
2023-09-24T19:25:56.892Z,40.95
2023-09-24T19:27:59.644Z,41.04
2023-09-24T19:30:02.714Z,41.20
2023-09-24T19:32:08.598Z,41.38
2023-09-24T19:34:11.553Z,41.35
2023-09-24T19:36:18.159Z,41.35
2023-09-24T19:38:21.187Z,41.46
2023-09-24T19:40:25.338Z,41.81
2023-09-24T19:42:28.091Z,41.53
2023-09-24T19:44:31.270Z,41.41
2023-09-24T19:46:34.249Z,41.45
2023-09-24T19:48:38.353Z,41.35
2023-09-24T19:50:41.206Z,41.64
2023-09-24T19:52:44.010Z,41.71
2023-09-24T19:54:46.699Z,42.31
2023-09-24T19:56:49.984Z,42.21
2023-09-24T19:58:52.625Z,42.52
2023-09-24T20:00:59.884Z,42.49
2023-09-24T20:03:02.789Z,42.38
2023-09-24T20:05:07.096Z,42.39
2023-09-24T20:07:10.022Z,42.62
2023-09-24T20:09:12.927Z,43.04
2023-09-24T20:11:16.036Z,42.88
2023-09-24T20:13:19.052Z,42.95
2023-09-24T20:15:21.977Z,43.09
2023-09-24T20:17:24.746Z,43.34
2023-09-24T20:19:28.048Z,43.64
2023-09-24T20:21:30.848Z,43.29
2023-09-24T20:23:33.677Z,43.39
2023-09-24T20:25:45.109Z,43.05
2023-09-24T20:27:48.746Z,43.26
2023-09-24T20:29:51.460Z,43.34
2023-09-24T20:31:54.119Z,43.60
2023-09-24T20:34:01.330Z,43.41
2023-09-24T20:36:05.468Z,43.39
2023-09-24T20:38:08.200Z,43.63
2023-09-24T20:40:11.298Z,43.66
2023-09-24T20:42:14.071Z,44.29
2023-09-24T20:44:16.747Z,44.15
2023-09-24T20:46:20.731Z,44.74
2023-09-24T20:48:23.720Z,44.36
2023-09-24T20:50:28.316Z,44.46
2023-09-24T20:52:31.055Z,44.38
2023-09-24T20:54:33.825Z,44.47
2023-09-24T20:56:36.597Z,44.40
2023-09-24T20:58:39.318Z,44.50
2023-09-24T21:00:44.647Z,44.88
2023-09-24T21:02:47.736Z,44.96
2023-09-24T21:04:50.482Z,44.64
2023-09-24T21:06:53.214Z,44.57
2023-09-24T21:08:55.951Z,44.57
2023-09-24T21:10:58.774Z,44.51
2023-09-24T21:13:01.842Z,44.86
2023-09-24T21:15:08.957Z,45.32
2023-09-24T21:17:11.978Z,44.77
2023-09-24T21:19:14.917Z,45.37
2023-09-24T21:21:17.622Z,45.10
2023-09-24T21:23:20.687Z,44.60
2023-09-24T21:25:23.327Z,44.73
2023-09-24T21:27:26.132Z,45.07
2023-09-24T21:29:28.934Z,44.75
2023-09-24T21:31:31.590Z,44.53
2023-09-24T21:33:35.355Z,44.39
2023-09-24T21:35:38.241Z,44.64
2023-09-24T21:37:40.872Z,44.63
2023-09-24T21:39:44.727Z,44.58
2023-09-24T21:41:47.423Z,44.65
2023-09-24T21:43:50.138Z,44.88
2023-09-24T21:45:52.802Z,44.64
2023-09-24T21:47:55.663Z,44.80
2023-09-24T21:49:58.486Z,45.02
2023-09-24T21:52:03.230Z,44.75
2023-09-24T21:54:06.192Z,45.21
2023-09-24T21:56:08.965Z,45.29
2023-09-24T21:58:11.641Z,45.04
2023-09-24T22:00:20.597Z,45.01
2023-09-24T22:02:23.663Z,45.35
2023-09-24T22:04:26.657Z,45.08
2023-09-24T22:06:30.315Z,45.62
2023-09-24T22:08:33.510Z,45.77
2023-09-24T22:10:37.336Z,45.77
2023-09-24T22:12:41.065Z,46.38
2023-09-24T22:14:43.830Z,45.97
2023-09-24T22:16:48.966Z,45.69
2023-09-24T22:18:51.952Z,45.71
2023-09-24T22:20:54.788Z,45.80
2023-09-24T22:22:57.467Z,45.72
2023-09-24T22:25:00.166Z,45.53
2023-09-24T22:27:02.987Z,45.73
2023-09-24T22:29:05.855Z,45.46
2023-09-24T22:31:10.419Z,45.27
2023-09-24T22:33:13.132Z,45.38
2023-09-24T22:35:17.148Z,45.83
2023-09-24T22:37:19.991Z,45.55
2023-09-24T22:39:22.740Z,45.60
2023-09-24T22:41:25.404Z,45.39
2023-09-24T22:43:28.541Z,45.54
2023-09-24T22:45:31.451Z,45.57
2023-09-24T22:47:34.835Z,45.53
2023-09-24T22:49:38.159Z,45.34
2023-09-24T22:51:41.144Z,45.30
2023-09-24T22:53:44.254Z,45.27
2023-09-24T22:55:47.422Z,46.00
2023-09-24T22:57:50.358Z,45.65
2023-09-24T22:59:53.073Z,45.69
2023-09-24T23:01:55.833Z,46.29
2023-09-24T23:03:58.595Z,46.11
2023-09-24T23:06:01.386Z,46.31
2023-09-24T23:08:05.210Z,45.92
2023-09-24T23:10:08.718Z,46.88
2023-09-24T23:12:12.057Z,46.34
2023-09-24T23:14:14.839Z,46.75
2023-09-24T23:16:17.491Z,46.99
2023-09-24T23:18:21.897Z,46.63
2023-09-24T23:20:26.395Z,46.17
2023-09-24T23:22:30.415Z,46.40
2023-09-24T23:24:34.102Z,46.29
2023-09-24T23:26:36.887Z,46.49
2023-09-24T23:28:40.058Z,46.53
2023-09-24T23:30:45.647Z,46.97
2023-09-24T23:32:48.490Z,46.38
2023-09-24T23:34:51.204Z,46.40
2023-09-24T23:36:53.821Z,46.29
2023-09-24T23:38:56.737Z,46.21
2023-09-24T23:40:59.510Z,46.36
2023-09-24T23:43:02.825Z,46.59
2023-09-24T23:45:06.056Z,46.40
2023-09-24T23:47:08.765Z,46.43
2023-09-24T23:49:11.494Z,46.59
2023-09-24T23:51:14.208Z,46.74
2023-09-24T23:53:17.102Z,46.39
2023-09-24T23:55:19.904Z,46.57
2023-09-24T23:57:23.968Z,46.28
2023-09-24T23:59:27.088Z,46.45
